createdAt,value
2023-04-16T00:01:23.278Z,5.50
2023-04-16T00:03:53.858Z,5.40
2023-04-16T00:06:25.045Z,5.40
2023-04-16T00:08:55.477Z,5.40
2023-04-16T00:11:26.399Z,5.40
2023-04-16T00:13:58.133Z,5.20
2023-04-16T00:16:30.641Z,5.30
2023-04-16T00:19:01.243Z,5.30
2023-04-16T00:21:32.563Z,5.40
2023-04-16T00:24:03.122Z,5.10
2023-04-16T00:26:34.030Z,5.50
2023-04-16T00:29:04.699Z,5.70
2023-04-16T00:31:37.013Z,5.80
2023-04-16T00:34:07.536Z,5.70
2023-04-16T00:36:38.521Z,5.60
2023-04-16T00:39:09.253Z,5.50
2023-04-16T00:41:40.275Z,5.60
2023-04-16T00:44:10.941Z,5.50
2023-04-16T00:46:43.868Z,5.50
2023-04-16T00:49:14.663Z,5.50
2023-04-16T00:51:45.563Z,5.80
2023-04-16T00:54:16.048Z,5.70
2023-04-16T00:56:47.934Z,5.60
2023-04-16T00:59:19.215Z,5.60
2023-04-16T01:01:51.488Z,5.60
2023-04-16T01:04:22.376Z,5.60
2023-04-16T01:06:53.086Z,5.40
2023-04-16T01:09:23.431Z,5.50
2023-04-16T01:11:54.283Z,5.50
2023-04-16T01:14:24.686Z,5.60
2023-04-16T01:16:56.997Z,5.60
2023-04-16T01:19:27.392Z,5.40
2023-04-16T01:21:59.668Z,5.40
2023-04-16T01:24:30.182Z,5.30
2023-04-16T01:27:01.305Z,5.40
2023-04-16T01:29:31.756Z,5.70
2023-04-16T01:32:03.902Z,5.60
2023-04-16T01:34:44.213Z,5.40
2023-04-16T01:37:17.158Z,5.30
2023-04-16T01:39:47.478Z,5.20
2023-04-16T01:42:18.123Z,5.00
2023-04-16T01:44:49.423Z,4.90
2023-04-16T01:47:20.858Z,4.90
2023-04-16T01:49:51.091Z,4.80
2023-04-16T01:52:23.288Z,4.80
2023-04-16T01:54:53.797Z,4.60
2023-04-16T01:57:24.825Z,4.60
2023-04-16T01:59:56.889Z,4.60
2023-04-16T02:02:29.425Z,4.50
2023-04-16T02:05:00.061Z,4.60
2023-04-16T02:07:32.854Z,4.60
2023-04-16T02:10:04.817Z,4.70
2023-04-16T02:12:36.984Z,4.70
2023-04-16T02:15:08.960Z,4.90
2023-04-16T02:17:39.981Z,4.80
2023-04-16T02:20:13.806Z,5.00
2023-04-16T02:23:06.289Z,5.00
2023-04-16T02:25:41.445Z,4.90
2023-04-16T02:28:16.568Z,4.90
2023-04-16T02:30:48.755Z,5.10
2023-04-16T02:33:21.467Z,5.30
2023-04-16T02:36:11.466Z,5.40
2023-04-16T02:38:43.802Z,5.40
2023-04-16T02:41:14.396Z,5.30
2023-04-16T02:43:45.200Z,5.30
2023-04-16T02:46:15.581Z,5.30
2023-04-16T02:48:46.449Z,5.30
2023-04-16T02:51:16.765Z,5.30
2023-04-16T02:53:48.906Z,5.20
2023-04-16T02:56:19.613Z,5.20
2023-04-16T02:58:50.207Z,5.20
2023-04-16T03:01:20.602Z,5.20
2023-04-16T03:03:51.462Z,5.10
2023-04-16T03:06:21.979Z,5.20
2023-04-16T03:08:54.074Z,5.20
2023-04-16T03:11:24.621Z,5.20
2023-04-16T03:13:55.642Z,5.10
2023-04-16T03:16:26.332Z,5.00
2023-04-16T03:18:57.119Z,5.00
2023-04-16T03:21:27.896Z,5.00
2023-04-16T03:24:00.012Z,5.00
2023-04-16T03:26:31.751Z,5.10
2023-04-16T03:29:03.257Z,5.10
2023-04-16T03:31:35.293Z,5.10
2023-04-16T03:34:06.347Z,5.10
2023-04-16T03:36:40.057Z,5.20
2023-04-16T03:39:12.025Z,5.20
2023-04-16T03:41:43.080Z,5.30
2023-04-16T03:44:14.027Z,5.30
2023-04-16T03:46:45.195Z,5.30
2023-04-16T03:49:16.554Z,5.30
2023-04-16T03:51:47.579Z,5.10
2023-04-16T03:54:22.433Z,5.10
2023-04-16T03:56:59.746Z,5.00
2023-04-16T03:59:30.942Z,5.00
2023-04-16T04:02:03.479Z,5.00
2023-04-16T04:04:39.366Z,5.10
2023-04-16T04:07:14.368Z,5.10
2023-04-16T04:09:47.691Z,5.10
2023-04-16T04:12:21.757Z,5.00
2023-04-16T04:14:52.772Z,5.10
2023-04-16T04:17:26.230Z,5.40
2023-04-16T04:20:01.406Z,5.60
2023-04-16T04:22:35.152Z,5.70
2023-04-16T04:25:08.738Z,5.70
2023-04-16T04:27:39.534Z,5.70
2023-04-16T04:30:13.730Z,5.70
2023-04-16T04:32:47.956Z,5.50
2023-04-16T04:35:20.277Z,5.40
2023-04-16T04:37:52.475Z,5.40
2023-04-16T04:40:25.890Z,5.40
2023-04-16T04:42:56.682Z,5.40
2023-04-16T04:45:31.199Z,5.50
2023-04-16T04:48:02.430Z,5.50
2023-04-16T04:50:34.375Z,5.50
2023-04-16T04:53:10.179Z,5.50
2023-04-16T04:55:43.509Z,5.60
2023-04-16T04:58:14.162Z,5.60
2023-04-16T05:00:46.896Z,5.60
2023-04-16T05:03:22.801Z,5.70
2023-04-16T05:05:53.745Z,5.70
2023-04-16T05:08:24.092Z,5.80
2023-04-16T05:10:56.832Z,5.90
2023-04-16T05:13:27.325Z,5.90
2023-04-16T05:15:57.988Z,6.00
2023-04-16T05:18:28.347Z,6.20
2023-04-16T05:20:59.159Z,6.40
2023-04-16T05:23:29.774Z,6.40
2023-04-16T05:26:02.118Z,6.20
2023-04-16T05:28:34.290Z,6.30
2023-04-16T05:31:07.441Z,6.40
2023-04-16T05:33:38.605Z,6.50
2023-04-16T05:36:09.545Z,6.90
2023-04-16T05:38:39.945Z,7.30
2023-04-16T05:41:11.936Z,7.60
2023-04-16T05:43:42.292Z,8.00
2023-04-16T05:46:13.141Z,7.90
2023-04-16T05:48:44.330Z,7.60
2023-04-16T05:51:18.032Z,7.30
2023-04-16T05:53:48.956Z,7.50
2023-04-16T05:56:22.022Z,7.40
2023-04-16T05:58:52.456Z,7.50
2023-04-16T06:01:23.924Z,7.70
2023-04-16T06:03:54.518Z,7.90
2023-04-16T06:06:27.522Z,7.70
2023-04-16T06:08:58.002Z,7.70
2023-04-16T06:11:31.757Z,7.60
2023-04-16T06:14:02.066Z,7.50
2023-04-16T06:16:32.786Z,7.70
2023-04-16T06:19:03.608Z,7.80
2023-04-16T06:21:34.775Z,7.80
2023-04-16T06:24:05.645Z,8.40
2023-04-16T06:26:37.676Z,8.40
2023-04-16T06:29:08.153Z,8.40
2023-04-16T06:31:39.133Z,8.40
2023-04-16T06:34:10.398Z,8.20
2023-04-16T06:36:41.449Z,8.20
2023-04-16T06:39:12.152Z,8.20
2023-04-16T06:41:44.839Z,8.20
2023-04-16T06:44:15.317Z,8.50
2023-04-16T06:46:46.348Z,8.10
2023-04-16T06:49:16.653Z,7.90
2023-04-16T06:51:47.384Z,7.70
2023-04-16T06:54:19.046Z,7.40
2023-04-16T06:56:51.045Z,7.30
2023-04-16T06:59:21.390Z,7.50
2023-04-16T07:01:52.966Z,7.90
2023-04-16T07:04:24.447Z,8.00
2023-04-16T07:06:55.264Z,7.70
2023-04-16T07:09:26.878Z,7.50
2023-04-16T07:11:59.014Z,7.60
2023-04-16T07:14:29.705Z,7.40
2023-04-16T07:17:00.499Z,7.70
2023-04-16T07:19:32.878Z,8.80
2023-04-16T07:22:04.039Z,8.90
2023-04-16T07:24:34.489Z,9.50
2023-04-16T07:27:06.604Z,9.90
2023-04-16T07:29:36.965Z,9.70
2023-04-16T07:32:07.975Z,9.40
2023-04-16T07:34:38.388Z,9.50
2023-04-16T07:37:09.528Z,9.60
2023-04-16T07:39:41.473Z,9.60
2023-04-16T07:42:14.483Z,9.50
2023-04-16T07:44:45.190Z,10.30
2023-04-16T07:47:17.819Z,10.10
2023-04-16T07:49:48.885Z,10.40
2023-04-16T07:52:20.146Z,10.20
2023-04-16T07:54:51.976Z,10.40
2023-04-16T07:57:24.664Z,10.30
2023-04-16T07:59:55.499Z,10.60
2023-04-16T08:02:28.067Z,11.00
2023-04-16T08:04:59.080Z,10.60
2023-04-16T08:07:32.740Z,10.70
2023-04-16T08:10:08.023Z,10.70
2023-04-16T08:12:40.964Z,11.00
2023-04-16T08:15:12.683Z,10.90
2023-04-16T08:17:44.115Z,11.20
2023-04-16T08:20:17.023Z,11.40
2023-04-16T08:22:50.596Z,11.40
2023-04-16T08:25:23.755Z,11.60
2023-04-16T08:27:55.716Z,11.80
2023-04-16T08:30:26.916Z,11.40
2023-04-16T08:32:58.529Z,11.50
2023-04-16T08:35:29.521Z,11.40
2023-04-16T08:38:02.610Z,11.10
2023-04-16T08:40:34.160Z,10.90
2023-04-16T08:43:13.472Z,11.30
2023-04-16T08:45:45.420Z,12.40
2023-04-16T08:48:17.612Z,13.10
2023-04-16T08:50:52.320Z,13.10
2023-04-16T08:53:38.220Z,13.00
2023-04-16T08:56:11.361Z,12.80
2023-04-16T08:58:44.856Z,12.30
2023-04-16T09:01:19.207Z,12.20
2023-04-16T09:04:01.479Z,12.50
2023-04-16T09:06:39.112Z,12.30
2023-04-16T09:09:12.498Z,12.30
2023-04-16T09:11:47.998Z,12.80
2023-04-16T09:14:23.468Z,13.50
2023-04-16T09:16:59.481Z,13.70
2023-04-16T09:19:31.204Z,13.40
2023-04-16T09:22:01.840Z,13.10
2023-04-16T09:24:35.318Z,12.70
2023-04-16T09:27:09.717Z,12.70
2023-04-16T09:29:43.239Z,12.70
2023-04-16T09:32:14.156Z,12.70
2023-04-16T09:34:59.153Z,12.70
2023-04-16T09:37:30.902Z,12.90
2023-04-16T09:40:04.056Z,12.30
2023-04-16T09:42:38.281Z,12.10
2023-04-16T09:45:11.890Z,12.10
2023-04-16T09:47:44.427Z,13.00
2023-04-16T09:50:19.582Z,13.40
2023-04-16T09:52:52.245Z,13.40
2023-04-16T09:55:28.546Z,13.50
2023-04-16T09:58:01.979Z,13.50
2023-04-16T10:00:34.635Z,14.50
2023-04-16T10:03:08.400Z,14.60
2023-04-16T10:05:39.309Z,14.70
2023-04-16T10:08:18.928Z,15.30
2023-04-16T10:10:49.811Z,15.20
2023-04-16T10:13:20.440Z,15.50
2023-04-16T10:15:52.960Z,16.00
2023-04-16T10:18:24.541Z,16.40
2023-04-16T10:20:55.275Z,16.30
2023-04-16T10:23:25.659Z,15.80
2023-04-16T10:25:57.676Z,15.70
2023-04-16T10:28:29.257Z,15.00
2023-04-16T10:31:03.182Z,15.60
2023-04-16T10:33:36.551Z,16.10
2023-04-16T10:36:12.519Z,16.10
2023-04-16T10:38:47.025Z,15.60
2023-04-16T10:41:21.271Z,15.30
2023-04-16T10:43:52.700Z,15.40
2023-04-16T10:46:27.029Z,15.10
2023-04-16T10:49:02.537Z,14.90
2023-04-16T10:51:35.815Z,14.80
2023-04-16T10:54:21.852Z,14.50
2023-04-16T10:56:53.314Z,14.80
2023-04-16T10:59:25.418Z,14.50
2023-04-16T11:02:01.717Z,14.50
2023-04-16T11:04:37.208Z,14.60
2023-04-16T11:07:18.270Z,14.40
2023-04-16T11:09:59.929Z,14.70
2023-04-16T11:12:37.898Z,14.90
2023-04-16T11:15:10.916Z,14.90
2023-04-16T11:17:45.874Z,14.70
2023-04-16T11:20:21.200Z,14.30
2023-04-16T11:22:54.772Z,14.30
2023-04-16T11:25:27.541Z,14.30
2023-04-16T11:27:59.326Z,14.20
2023-04-16T11:30:35.587Z,14.10
2023-04-16T11:33:11.486Z,13.90
2023-04-16T11:35:43.542Z,14.60
2023-04-16T11:38:14.277Z,15.10
2023-04-16T11:40:44.908Z,15.60
2023-04-16T11:43:17.544Z,16.00
2023-04-16T11:46:07.516Z,15.90
2023-04-16T11:48:55.726Z,15.30
2023-04-16T11:51:26.368Z,16.00
2023-04-16T11:53:58.865Z,16.20
2023-04-16T11:56:30.184Z,16.30
2023-04-16T11:59:12.580Z,16.40
2023-04-16T12:01:47.584Z,16.60
2023-04-16T12:04:22.503Z,16.70
2023-04-16T12:07:12.740Z,16.20
2023-04-16T12:09:45.144Z,16.30
2023-04-16T12:12:33.541Z,16.70
2023-04-16T12:15:05.409Z,16.60
2023-04-16T12:17:38.008Z,16.00
2023-04-16T12:20:13.816Z,16.60
2023-04-16T12:22:47.834Z,16.90
2023-04-16T12:25:19.348Z,17.10
2023-04-16T12:27:54.317Z,17.00
2023-04-16T12:30:26.516Z,17.40
2023-04-16T12:33:17.349Z,17.30
2023-04-16T12:35:49.861Z,17.10
2023-04-16T12:38:22.188Z,17.20
2023-04-16T12:40:57.399Z,17.10
2023-04-16T12:43:28.606Z,16.80
2023-04-16T12:46:00.230Z,17.00
2023-04-16T12:48:32.457Z,16.30
2023-04-16T12:51:04.798Z,16.00
2023-04-16T12:53:35.971Z,16.50
2023-04-16T12:56:07.092Z,16.80
2023-04-16T12:58:37.670Z,16.70
2023-04-16T13:01:08.600Z,17.00
2023-04-16T13:03:39.160Z,16.80
2023-04-16T13:06:11.640Z,16.70
2023-04-16T13:08:42.255Z,16.90
2023-04-16T13:11:13.330Z,16.70
2023-04-16T13:13:43.848Z,17.60
2023-04-16T13:16:15.584Z,17.80
2023-04-16T13:18:46.133Z,17.70
2023-04-16T13:21:18.574Z,17.40
2023-04-16T13:23:49.074Z,16.40
2023-04-16T13:26:19.837Z,15.80
2023-04-16T13:28:50.508Z,15.80
2023-04-16T13:31:22.416Z,15.80
2023-04-16T13:33:53.015Z,15.70
2023-04-16T13:36:27.547Z,15.70
2023-04-16T13:38:58.362Z,15.40
2023-04-16T13:41:29.227Z,15.60
2023-04-16T13:43:59.759Z,15.50
2023-04-16T13:46:30.732Z,15.60
2023-04-16T13:49:01.377Z,15.80
2023-04-16T13:51:33.644Z,16.00
2023-04-16T13:54:03.997Z,15.90
2023-04-16T13:56:34.898Z,16.00
2023-04-16T13:59:05.139Z,16.00
2023-04-16T14:01:36.038Z,16.00
2023-04-16T14:04:07.102Z,16.20
2023-04-16T14:06:39.658Z,16.60
2023-04-16T14:09:11.194Z,16.30
2023-04-16T14:11:42.884Z,16.20
2023-04-16T14:14:15.898Z,16.10
2023-04-16T14:16:47.048Z,16.10
2023-04-16T14:19:17.488Z,15.80
2023-04-16T14:21:49.662Z,15.60
2023-04-16T14:24:20.318Z,15.60
2023-04-16T14:26:51.116Z,15.70
2023-04-16T14:29:21.757Z,15.60
2023-04-16T14:31:52.809Z,15.80
2023-04-16T14:34:23.198Z,15.70
2023-04-16T14:36:56.060Z,15.60
2023-04-16T14:39:27.290Z,16.00
2023-04-16T14:41:58.084Z,16.40
2023-04-16T14:44:28.646Z,17.10
2023-04-16T14:46:59.294Z,17.60
2023-04-16T14:49:32.650Z,18.00
2023-04-16T14:52:05.941Z,17.20
2023-04-16T14:54:36.605Z,17.10
2023-04-16T14:57:07.720Z,17.90
2023-04-16T14:59:38.731Z,17.70
2023-04-16T15:02:11.312Z,18.40
2023-04-16T15:04:42.043Z,19.20
2023-04-16T15:07:14.549Z,19.10
2023-04-16T15:09:45.173Z,19.60
2023-04-16T15:12:18.019Z,19.90
2023-04-16T15:14:49.892Z,19.90
2023-04-16T15:17:23.335Z,18.70
2023-04-16T15:19:55.369Z,18.10
2023-04-16T15:22:28.173Z,17.70
2023-04-16T15:24:59.221Z,18.40
2023-04-16T15:27:30.664Z,18.00
2023-04-16T15:30:01.098Z,17.10
2023-04-16T15:32:34.230Z,17.10
2023-04-16T15:35:06.209Z,16.70
2023-04-16T15:37:39.396Z,16.30
2023-04-16T15:40:11.203Z,16.20
2023-04-16T15:42:44.985Z,16.20
2023-04-16T15:45:15.936Z,16.10
2023-04-16T15:47:51.202Z,15.90
2023-04-16T15:50:22.843Z,15.80
2023-04-16T15:52:55.456Z,15.70
2023-04-16T15:55:26.630Z,15.60
2023-04-16T15:57:57.472Z,15.60
2023-04-16T16:00:28.199Z,15.50
2023-04-16T16:02:59.337Z,15.40
2023-04-16T16:05:29.978Z,15.30
2023-04-16T16:08:02.428Z,15.30
2023-04-16T16:10:33.023Z,15.40
2023-04-16T16:13:05.601Z,15.90
2023-04-16T16:15:36.151Z,16.40
2023-04-16T16:18:07.160Z,16.60
2023-04-16T16:20:39.035Z,16.30
2023-04-16T16:23:11.643Z,15.70
2023-04-16T16:25:42.697Z,15.50
2023-04-16T16:28:13.501Z,15.20
2023-04-16T16:30:45.015Z,16.10
2023-04-16T16:33:16.568Z,16.90
2023-04-16T16:35:47.157Z,18.20
2023-04-16T16:38:19.312Z,18.60
2023-04-16T16:40:49.816Z,17.90
2023-04-16T16:43:20.913Z,16.20
2023-04-16T16:45:51.455Z,14.90
2023-04-16T16:48:22.394Z,14.30
2023-04-16T16:50:52.847Z,13.90
2023-04-16T16:53:25.114Z,13.70
2023-04-16T16:55:55.673Z,13.60
2023-04-16T16:58:27.767Z,13.50
2023-04-16T17:00:58.896Z,13.40
2023-04-16T17:03:29.920Z,13.30
2023-04-16T17:06:01.220Z,13.10
2023-04-16T17:08:36.523Z,13.00
2023-04-16T17:11:08.352Z,12.90
2023-04-16T17:13:41.372Z,12.90
2023-04-16T17:16:15.403Z,12.80
2023-04-16T17:18:47.397Z,12.80
2023-04-16T17:21:18.139Z,12.70
2023-04-16T17:23:53.152Z,12.60
2023-04-16T17:26:25.039Z,12.50
2023-04-16T17:28:58.319Z,12.50
2023-04-16T17:31:29.989Z,12.30
2023-04-16T17:34:03.854Z,12.30
2023-04-16T17:36:39.358Z,12.20
2023-04-16T17:39:12.910Z,12.10
2023-04-16T17:41:45.940Z,12.10
2023-04-16T17:44:19.416Z,12.10
2023-04-16T17:46:50.846Z,12.00
2023-04-16T17:49:21.908Z,12.00
2023-04-16T17:51:58.680Z,11.90
2023-04-16T17:54:31.879Z,12.00
2023-04-16T17:57:05.883Z,11.90
2023-04-16T17:59:39.722Z,12.00
2023-04-16T18:02:10.689Z,12.00
2023-04-16T18:04:45.851Z,12.00
2023-04-16T18:07:17.002Z,11.90
2023-04-16T18:09:49.108Z,11.60
2023-04-16T18:12:21.267Z,11.50
2023-04-16T18:14:52.898Z,11.60
2023-04-16T18:17:23.854Z,11.50
2023-04-16T18:19:57.162Z,11.50
2023-04-16T18:22:28.611Z,11.50
2023-04-16T18:25:00.938Z,11.40
2023-04-16T18:27:31.649Z,11.50
2023-04-16T18:30:04.400Z,11.50
2023-04-16T18:32:37.297Z,11.40
2023-04-16T18:35:09.939Z,11.40
2023-04-16T18:37:41.942Z,11.30
2023-04-16T18:40:19.162Z,11.20
2023-04-16T18:42:49.991Z,11.20
2023-04-16T18:45:22.123Z,11.10
2023-04-16T18:47:53.858Z,11.10
2023-04-16T18:50:28.000Z,11.10
2023-04-16T18:53:01.195Z,11.00
2023-04-16T18:55:34.561Z,11.00
2023-04-16T18:58:05.718Z,10.90
2023-04-16T19:00:37.790Z,11.00
2023-04-16T19:03:14.013Z,10.90
2023-04-16T19:05:44.980Z,10.90
2023-04-16T19:08:15.594Z,10.90
2023-04-16T19:10:49.182Z,10.80
2023-04-16T19:13:19.982Z,10.70
2023-04-16T19:15:51.705Z,10.60
2023-04-16T19:18:24.795Z,10.60
2023-04-16T19:21:01.333Z,10.60
2023-04-16T19:23:31.827Z,10.50
2023-04-16T19:26:07.638Z,10.50
2023-04-16T19:28:39.885Z,10.40
2023-04-16T19:31:11.628Z,10.40
2023-04-16T19:33:42.406Z,10.40
2023-04-16T19:36:14.873Z,10.40
2023-04-16T19:38:46.991Z,10.40
2023-04-16T19:41:21.513Z,10.50
2023-04-16T19:43:55.519Z,10.40
2023-04-16T19:46:30.975Z,10.40
2023-04-16T19:49:01.414Z,10.30
2023-04-16T19:51:32.756Z,10.30
2023-04-16T19:54:04.366Z,10.30
2023-04-16T19:56:37.415Z,10.20
2023-04-16T19:59:08.634Z,10.20
2023-04-16T20:01:41.174Z,10.20
2023-04-16T20:04:13.617Z,10.20
2023-04-16T20:06:45.628Z,10.20
2023-04-16T20:09:18.771Z,10.20
2023-04-16T20:11:50.966Z,10.20
2023-04-16T20:14:21.845Z,10.20
2023-04-16T20:16:55.456Z,10.20
2023-04-16T20:19:34.943Z,10.20
2023-04-16T20:22:07.217Z,10.10
2023-04-16T20:24:40.946Z,10.10
2023-04-16T20:27:15.495Z,10.10
2023-04-16T20:29:46.165Z,10.10
2023-04-16T20:32:17.624Z,10.10
2023-04-16T20:34:51.006Z,10.10
2023-04-16T20:37:22.082Z,10.20
2023-04-16T20:39:54.329Z,10.20
2023-04-16T20:42:32.238Z,10.10
2023-04-16T20:45:06.803Z,10.00
2023-04-16T20:47:39.596Z,9.90
2023-04-16T20:50:12.772Z,9.80
2023-04-16T20:52:46.329Z,9.70
2023-04-16T20:55:19.714Z,9.60
2023-04-16T20:57:52.810Z,9.50
2023-04-16T21:00:27.470Z,9.40
2023-04-16T21:02:59.087Z,9.30
2023-04-16T21:05:30.227Z,9.30
2023-04-16T21:08:01.986Z,9.30
2023-04-16T21:10:36.405Z,9.20
2023-04-16T21:13:15.014Z,9.30
2023-04-16T21:15:48.821Z,9.20
2023-04-16T21:18:21.856Z,9.20
2023-04-16T21:20:52.672Z,9.30
2023-04-16T21:23:26.134Z,9.30
2023-04-16T21:25:57.745Z,9.40
2023-04-16T21:28:31.093Z,9.30
2023-04-16T21:31:01.573Z,9.40
2023-04-16T21:33:32.664Z,9.30
2023-04-16T21:36:05.894Z,9.40
2023-04-16T21:38:39.320Z,9.30
2023-04-16T21:41:09.954Z,9.30
2023-04-16T21:43:43.271Z,9.30
2023-04-16T21:46:13.874Z,9.40
2023-04-16T21:48:45.955Z,9.40
2023-04-16T21:51:20.238Z,9.40
2023-04-16T21:53:52.854Z,9.40
2023-04-16T21:56:26.666Z,9.40
2023-04-16T21:58:59.791Z,9.40
2023-04-16T22:01:31.365Z,9.40
2023-04-16T22:04:04.053Z,9.40
2023-04-16T22:06:36.804Z,9.50
2023-04-16T22:09:09.684Z,9.40
2023-04-16T22:11:41.251Z,9.40
2023-04-16T22:14:15.238Z,9.40
2023-04-16T22:16:50.603Z,9.40
2023-04-16T22:19:22.808Z,9.40
2023-04-16T22:21:53.538Z,9.40
2023-04-16T22:24:24.788Z,9.30
2023-04-16T22:26:57.109Z,9.40
2023-04-16T22:29:29.589Z,9.40
2023-04-16T22:32:00.833Z,9.40
2023-04-16T22:34:31.718Z,9.40
2023-04-16T22:37:03.171Z,9.20
2023-04-16T22:39:33.944Z,9.20
2023-04-16T22:42:04.421Z,9.20
2023-04-16T22:44:38.087Z,8.90
2023-04-16T22:47:08.354Z,8.90
2023-04-16T22:49:39.151Z,8.90
2023-04-16T22:52:09.472Z,8.90
2023-04-16T22:54:40.147Z,8.70
2023-04-16T22:57:10.689Z,8.80
2023-04-16T22:59:42.987Z,8.80
2023-04-16T23:02:13.358Z,8.80
2023-04-16T23:04:44.919Z,8.80
2023-04-16T23:07:15.681Z,8.80
2023-04-16T23:09:46.595Z,8.80
2023-04-16T23:12:16.970Z,8.80
2023-04-16T23:14:49.250Z,8.80
2023-04-16T23:17:19.682Z,8.80
2023-04-16T23:19:50.441Z,8.90
2023-04-16T23:22:20.771Z,8.80
2023-04-16T23:24:51.689Z,8.70
2023-04-16T23:27:22.196Z,8.70
2023-04-16T23:29:54.418Z,8.80
2023-04-16T23:32:24.872Z,8.60
2023-04-16T23:34:55.718Z,8.50
2023-04-16T23:37:26.216Z,8.40
2023-04-16T23:39:57.039Z,8.30
2023-04-16T23:42:27.406Z,8.30
2023-04-16T23:44:59.974Z,8.10
2023-04-16T23:47:30.699Z,8.00
2023-04-16T23:50:02.201Z,7.90
2023-04-16T23:52:32.567Z,8.00
2023-04-16T23:55:03.368Z,8.10
2023-04-16T23:57:33.956Z,8.10
